createdAt,value
2023-01-04T00:01:18.186Z,99008.47
2023-01-04T00:03:44.933Z,99009.25
2023-01-04T00:06:14.410Z,99011.09
2023-01-04T00:08:41.931Z,99011.19
2023-01-04T00:11:12.773Z,99004.88
2023-01-04T00:13:39.678Z,99002.22
2023-01-04T00:16:12.839Z,98996.94
2023-01-04T00:18:40.180Z,98994.03
2023-01-04T00:21:15.206Z,98986.28
2023-01-04T00:23:44.343Z,98990.72
2023-01-04T00:26:13.843Z,98996.06
2023-01-04T00:28:40.771Z,98997.00
2023-01-04T00:31:09.643Z,98985.78
2023-01-04T00:33:36.354Z,98988.25
2023-01-04T00:36:05.543Z,98984.13
2023-01-04T00:38:33.233Z,98984.91
2023-01-04T00:41:00.511Z,98990.13
2023-01-04T00:43:27.215Z,98987.28
2023-01-04T00:45:54.372Z,99000.31
2023-01-04T00:48:21.871Z,98987.34
2023-01-04T00:50:49.186Z,98993.41
2023-01-04T00:53:17.213Z,98993.19
2023-01-04T00:55:44.353Z,98994.91
2023-01-04T00:58:11.461Z,98992.41
2023-01-04T01:00:38.747Z,98989.81
2023-01-04T01:03:06.173Z,98997.34
2023-01-04T01:05:35.359Z,98995.63
2023-01-04T01:08:24.590Z,98993.97
2023-01-04T01:10:52.060Z,98994.19
2023-01-04T01:13:19.338Z,98991.56
2023-01-04T01:15:46.045Z,99002.72
2023-01-04T01:18:12.991Z,99002.72
2023-01-04T01:20:46.213Z,99002.72
2023-01-04T01:23:15.990Z,99000.22
2023-01-04T01:25:42.794Z,98996.00
2023-01-04T01:28:09.510Z,98991.72
2023-01-04T01:30:40.703Z,99000.22
2023-01-04T01:33:08.141Z,99002.72
2023-01-04T01:35:35.538Z,98995.03
2023-01-04T01:38:02.686Z,98997.63
2023-01-04T01:40:29.872Z,98990.72
2023-01-04T01:42:56.471Z,99000.16
2023-01-04T01:45:26.096Z,98994.81
2023-01-04T01:47:56.036Z,98988.75
2023-01-04T01:50:28.227Z,99000.00
2023-01-04T01:52:57.890Z,98993.97
2023-01-04T01:55:24.625Z,98985.38
2023-01-04T01:57:54.425Z,98989.69
2023-01-04T02:00:21.212Z,98983.75
2023-01-04T02:02:51.686Z,98985.38
2023-01-04T02:05:20.418Z,98981.84
2023-01-04T02:07:49.625Z,98983.53
2023-01-04T02:10:16.875Z,98976.78
2023-01-04T02:12:45.370Z,98969.72
2023-01-04T02:15:12.549Z,98972.34
2023-01-04T02:17:48.922Z,98974.25
2023-01-04T02:20:35.860Z,98973.94
2023-01-04T02:23:20.961Z,98974.78
2023-01-04T02:26:30.940Z,98974.88
2023-01-04T02:29:19.548Z,98974.94
2023-01-04T02:31:57.487Z,98977.31
2023-01-04T02:34:26.780Z,98966.22
2023-01-04T02:36:53.302Z,98967.91
2023-01-04T02:39:23.072Z,98966.28
2023-01-04T02:42:06.697Z,98965.34
2023-01-04T02:44:53.858Z,98972.28
2023-01-04T02:47:48.540Z,98971.34
2023-01-04T02:50:31.732Z,98980.00
2023-01-04T02:53:15.286Z,98969.44
2023-01-04T02:56:06.053Z,98978.09
2023-01-04T02:58:51.246Z,98981.53
2023-01-04T03:01:42.357Z,98978.25
2023-01-04T03:04:36.874Z,98974.66
2023-01-04T03:07:13.235Z,98978.88
2023-01-04T03:09:45.151Z,98985.94
2023-01-04T03:12:34.109Z,98976.50
2023-01-04T03:15:08.707Z,98970.34
2023-01-04T03:17:49.413Z,98975.56
2023-01-04T03:20:18.318Z,98967.75
2023-01-04T03:23:09.163Z,98964.28
2023-01-04T03:25:59.427Z,98969.56
2023-01-04T03:28:49.246Z,98968.59
2023-01-04T03:34:38.192Z,98963.31
2023-01-04T03:37:15.891Z,98967.63
2023-01-04T03:40:28.084Z,98970.44
2023-01-04T03:43:36.162Z,98969.72
2023-01-04T03:46:27.962Z,98966.22
2023-01-04T03:49:03.236Z,98966.13
2023-01-04T03:51:34.124Z,98959.84
2023-01-04T03:54:14.356Z,98962.69
2023-01-04T03:56:43.843Z,98961.00
2023-01-04T03:59:12.158Z,98960.06
2023-01-04T04:01:41.185Z,98973.72
2023-01-04T04:04:26.548Z,98967.69
2023-01-04T04:07:11.852Z,98972.81
2023-01-04T04:09:38.442Z,98966.63
2023-01-04T04:12:05.207Z,98962.41
2023-01-04T04:14:31.839Z,98956.63
2023-01-04T04:16:58.487Z,98966.22
2023-01-04T04:19:25.111Z,98962.69
2023-01-04T04:21:51.705Z,98954.03
2023-01-04T04:24:21.576Z,98959.91
2023-01-04T04:26:48.173Z,98959.78
2023-01-04T04:29:14.768Z,98952.59
2023-01-04T04:31:41.453Z,98939.00
2023-01-04T04:34:09.773Z,98947.59
2023-01-04T04:36:36.443Z,98951.97
2023-01-04T04:39:03.534Z,98961.47
2023-01-04T04:41:39.394Z,98962.25
2023-01-04T04:44:08.195Z,98966.84
2023-01-04T04:46:35.228Z,98959.00
2023-01-04T04:49:02.669Z,98956.25
2023-01-04T04:51:29.313Z,98952.75
2023-01-04T04:53:55.975Z,98958.69
2023-01-04T04:56:22.638Z,98957.03
2023-01-04T04:58:49.807Z,98965.78
2023-01-04T05:01:17.282Z,98965.78
2023-01-04T05:03:44.030Z,98967.47
2023-01-04T05:06:11.012Z,98965.78
2023-01-04T05:08:37.696Z,98968.28
2023-01-04T05:11:08.511Z,98961.41
2023-01-04T05:13:35.452Z,98951.97
2023-01-04T05:16:03.154Z,98958.03
2023-01-04T05:18:29.879Z,98960.56
2023-01-04T05:20:56.487Z,98952.88
2023-01-04T05:23:23.399Z,98948.44
2023-01-04T05:25:59.317Z,98939.72
2023-01-04T05:28:26.566Z,98949.16
2023-01-04T05:30:55.431Z,98945.59
2023-01-04T05:33:30.382Z,98951.75
2023-01-04T05:36:02.544Z,98949.03
2023-01-04T05:38:29.738Z,98948.28
2023-01-04T05:40:57.140Z,98950.75
2023-01-04T05:43:24.490Z,98951.66
2023-01-04T05:45:53.754Z,98958.47
2023-01-04T05:48:21.519Z,98958.41
2023-01-04T05:50:48.904Z,98963.47
2023-01-04T05:53:18.207Z,98958.25
2023-01-04T05:55:46.135Z,98955.03
2023-01-04T05:58:12.814Z,98958.56
2023-01-04T06:00:39.466Z,98956.03
2023-01-04T06:03:06.306Z,98957.88
2023-01-04T06:05:33.054Z,98958.78
2023-01-04T06:07:59.627Z,98960.69
2023-01-04T06:10:26.260Z,98966.06
2023-01-04T06:12:52.835Z,98965.44
2023-01-04T06:15:19.455Z,98961.28
2023-01-04T06:17:46.060Z,98962.44
2023-01-04T06:20:12.753Z,98965.38
2023-01-04T06:22:40.745Z,98962.16
2023-01-04T06:25:09.236Z,98965.75
2023-01-04T06:27:36.126Z,98970.94
2023-01-04T06:30:03.069Z,98968.19
2023-01-04T06:32:29.689Z,98964.69
2023-01-04T06:34:56.407Z,98956.78
2023-01-04T06:37:23.248Z,98961.66
2023-01-04T06:39:49.892Z,98969.09
2023-01-04T06:42:34.773Z,98973.47
2023-01-04T06:45:01.455Z,98971.72
2023-01-04T06:47:28.161Z,98959.47
2023-01-04T06:49:54.845Z,98954.25
2023-01-04T06:52:21.493Z,98959.47
2023-01-04T06:54:48.160Z,98959.34
2023-01-04T06:57:14.851Z,98955.06
2023-01-04T06:59:41.417Z,98956.00
2023-01-04T07:02:08.213Z,98957.63
2023-01-04T07:04:34.977Z,98959.84
2023-01-04T07:07:02.370Z,98961.75
2023-01-04T07:09:28.921Z,98957.47
2023-01-04T07:11:55.498Z,98960.22
2023-01-04T07:14:22.077Z,98974.78
2023-01-04T07:16:48.818Z,98970.13
2023-01-04T07:19:15.672Z,98969.00
2023-01-04T07:21:42.532Z,98973.06
2023-01-04T07:24:09.305Z,98978.00
2023-01-04T07:26:35.899Z,98975.84
2023-01-04T07:29:14.787Z,98967.81
2023-01-04T07:31:42.213Z,98970.44
2023-01-04T07:34:08.900Z,98967.72
2023-01-04T07:36:35.474Z,98965.81
2023-01-04T07:39:03.021Z,98969.19
2023-01-04T07:41:29.595Z,98966.13
2023-01-04T07:43:56.178Z,98965.28
2023-01-04T07:46:22.974Z,98966.03
2023-01-04T07:48:49.583Z,98975.56
2023-01-04T07:51:16.181Z,98971.94
2023-01-04T07:53:42.757Z,98977.09
2023-01-04T07:56:12.455Z,98965.50
2023-01-04T07:58:43.514Z,98976.56
2023-01-04T08:01:12.807Z,98978.38
2023-01-04T08:03:39.745Z,98969.94
2023-01-04T08:06:08.404Z,98965.03
2023-01-04T08:08:35.034Z,98957.81
2023-01-04T08:11:06.935Z,98957.97
2023-01-04T08:13:33.982Z,98964.88
2023-01-04T08:16:01.237Z,98958.59
2023-01-04T08:18:28.021Z,98968.91
2023-01-04T08:21:14.851Z,98969.97
2023-01-04T08:23:41.407Z,98963.84
2023-01-04T08:26:11.925Z,98968.59
2023-01-04T08:28:38.795Z,98969.47
2023-01-04T08:31:11.912Z,98962.84
2023-01-04T08:33:39.591Z,98968.59
2023-01-04T08:36:22.587Z,98960.59
2023-01-04T08:39:04.926Z,98958.97
2023-01-04T08:44:22.713Z,98953.00
2023-01-04T08:46:50.731Z,98948.94
2023-01-04T08:49:18.078Z,98944.72
2023-01-04T08:51:45.416Z,98937.41
2023-01-04T08:54:12.298Z,98931.25
2023-01-04T08:56:38.930Z,98936.41
2023-01-04T08:59:06.321Z,98936.91
2023-01-04T09:01:34.435Z,98935.44
2023-01-04T09:04:01.213Z,98931.19
2023-01-04T09:06:28.839Z,98923.66
2023-01-04T09:08:57.326Z,98919.94
2023-01-04T09:11:25.288Z,98922.91
2023-01-04T09:14:07.204Z,98921.88
2023-01-04T09:16:35.668Z,98924.31
2023-01-04T09:19:02.416Z,98925.28
2023-01-04T09:21:29.161Z,98919.91
2023-01-04T09:23:57.447Z,98921.38
2023-01-04T09:26:24.529Z,98908.13
2023-01-04T09:28:55.497Z,98902.50
2023-01-04T09:31:24.811Z,98902.75
2023-01-04T09:36:38.793Z,98894.91
2023-01-04T09:39:05.568Z,98895.19
2023-01-04T09:41:38.124Z,98893.97
2023-01-04T09:44:22.921Z,98883.06
2023-01-04T09:47:03.167Z,98879.72
2023-01-04T09:49:44.159Z,98873.69
2023-01-04T09:52:10.717Z,98863.75
2023-01-04T09:55:37.960Z,98852.81
2023-01-04T09:58:07.035Z,98851.66
2023-01-04T10:00:51.539Z,98848.88
2023-01-04T10:03:30.067Z,98846.63
2023-01-04T10:05:57.000Z,98841.44
2023-01-04T10:08:24.264Z,98839.88
2023-01-04T10:11:26.658Z,98833.63
2023-01-04T10:14:29.199Z,98825.53
2023-01-04T10:17:13.751Z,98829.19
2023-01-04T10:21:18.717Z,98818.38
2023-01-04T10:23:13.089Z,98809.72
2023-01-04T10:25:56.801Z,98809.78
2023-01-04T10:28:42.601Z,98808.31
2023-01-04T10:31:39.338Z,98800.56
2023-01-04T10:34:18.935Z,98796.41
2023-01-04T10:36:48.436Z,98797.03
2023-01-04T10:39:17.658Z,98797.25
2023-01-04T10:41:53.568Z,98783.53
2023-01-04T10:44:44.506Z,98770.19
2023-01-04T10:47:29.751Z,98760.22
2023-01-04T10:50:08.561Z,98751.53
2023-01-04T10:52:47.462Z,98744.91
2023-01-04T10:55:27.260Z,98743.53
2023-01-04T10:58:02.621Z,98744.13
2023-01-04T11:00:40.596Z,98721.56
2023-01-04T11:03:15.297Z,98721.25
2023-01-04T11:05:53.270Z,98710.13
2023-01-04T11:08:28.573Z,98712.16
2023-01-04T11:11:10.783Z,98717.94
2023-01-04T11:13:38.714Z,98716.63
2023-01-04T11:16:06.220Z,98716.44
2023-01-04T11:18:36.424Z,98718.75
2023-01-04T11:21:08.469Z,98721.97
2023-01-04T11:23:35.108Z,98712.56
2023-01-04T11:26:08.939Z,98708.06
2023-01-04T11:28:58.906Z,98709.13
2023-01-04T11:31:41.399Z,98702.19
2023-01-04T11:34:07.883Z,98697.84
2023-01-04T11:36:43.804Z,98690.69
2023-01-04T11:39:21.968Z,98690.28
2023-01-04T11:42:02.648Z,98680.53
2023-01-04T11:44:32.334Z,98684.88
2023-01-04T11:47:14.844Z,98683.06
2023-01-04T11:49:41.450Z,98685.25
2023-01-04T11:52:29.106Z,98677.47
2023-01-04T11:54:55.668Z,98665.88
2023-01-04T11:57:22.308Z,98662.34
2023-01-04T12:00:17.564Z,98662.34
2023-01-04T12:03:01.301Z,98656.84
2023-01-04T12:05:32.158Z,98646.28
2023-01-04T12:07:59.451Z,98646.00
2023-01-04T12:10:28.394Z,98637.44
2023-01-04T12:12:56.414Z,98634.06
2023-01-04T12:15:32.810Z,98630.34
2023-01-04T12:18:09.714Z,98628.78
2023-01-04T12:20:36.646Z,98625.53
2023-01-04T12:23:03.255Z,98627.34
2023-01-04T12:25:35.285Z,98608.56
2023-01-04T12:28:02.024Z,98610.38
2023-01-04T12:33:30.240Z,98592.16
2023-01-04T12:36:05.026Z,98594.25
2023-01-04T12:38:56.310Z,98591.75
2023-01-04T12:42:01.129Z,98588.94
2023-01-04T12:44:36.880Z,98591.91
2023-01-04T12:47:37.493Z,98585.75
2023-01-04T12:50:12.897Z,98578.31
2023-01-04T12:53:02.270Z,98585.56
2023-01-04T12:55:33.115Z,98572.50
2023-01-04T12:58:01.441Z,98564.84
2023-01-04T13:00:52.586Z,98562.38
2023-01-04T13:03:20.698Z,98566.09
2023-01-04T13:06:00.670Z,98566.25
2023-01-04T13:08:33.111Z,98561.91
2023-01-04T13:11:01.631Z,98550.63
2023-01-04T13:13:42.703Z,98542.84
2023-01-04T13:16:28.706Z,98544.63
2023-01-04T13:19:03.642Z,98542.88
2023-01-04T13:21:39.807Z,98540.00
2023-01-04T13:24:34.283Z,98540.88
2023-01-04T13:27:17.232Z,98537.81
2023-01-04T13:29:45.464Z,98540.56
2023-01-04T13:32:19.309Z,98538.78
2023-01-04T13:35:13.336Z,98540.03
2023-01-04T13:37:44.152Z,98536.41
2023-01-04T13:40:27.965Z,98536.06
2023-01-04T13:43:33.959Z,98525.38
2023-01-04T13:46:12.995Z,98523.78
2023-01-04T13:48:43.312Z,98524.94
2023-01-04T13:51:37.740Z,98524.13
2023-01-04T13:54:16.760Z,98509.84
2023-01-04T13:56:55.156Z,98518.53
2023-01-04T13:59:22.596Z,98512.28
2023-01-04T14:01:50.156Z,98505.88
2023-01-04T14:04:26.275Z,98509.59
2023-01-04T14:06:55.245Z,98512.50
2023-01-04T14:09:25.854Z,98505.69
2023-01-04T14:12:09.393Z,98509.31
2023-01-04T14:14:57.982Z,98512.38
2023-01-04T14:17:30.292Z,98506.06
2023-01-04T14:20:05.249Z,98510.75
2023-01-04T14:22:47.130Z,98503.66
2023-01-04T14:25:35.763Z,98509.97
2023-01-04T14:28:24.867Z,98502.84
2023-01-04T14:30:59.520Z,98507.22
2023-01-04T14:33:38.885Z,98511.63
2023-01-04T14:36:19.639Z,98513.91
2023-01-04T14:38:59.953Z,98505.19
2023-01-04T14:41:32.778Z,98499.06
2023-01-04T14:43:59.259Z,98489.97
2023-01-04T14:46:27.267Z,98476.81
2023-01-04T14:48:54.497Z,98485.09
2023-01-04T14:51:32.791Z,98480.38
2023-01-04T14:53:59.353Z,98482.56
2023-01-04T14:56:26.099Z,98482.00
2023-01-04T14:58:52.654Z,98483.53
2023-01-04T15:01:19.329Z,98477.72
2023-01-04T15:03:46.081Z,98479.66
2023-01-04T15:06:12.815Z,98483.22
2023-01-04T15:08:39.405Z,98488.47
2023-01-04T15:11:06.141Z,98487.94
2023-01-04T15:13:39.028Z,98478.75
2023-01-04T15:16:07.572Z,98473.72
2023-01-04T15:18:34.309Z,98467.41
2023-01-04T15:21:02.167Z,98477.13
2023-01-04T15:23:28.772Z,98458.88
2023-01-04T15:25:55.549Z,98468.25
2023-01-04T15:28:24.200Z,98459.88
2023-01-04T15:30:50.912Z,98470.75
2023-01-04T15:33:17.656Z,98465.69
2023-01-04T15:35:44.514Z,98468.00
2023-01-04T15:38:16.133Z,98465.44
2023-01-04T15:40:44.750Z,98457.44
2023-01-04T15:43:11.785Z,98467.06
2023-01-04T15:45:39.610Z,98452.69
2023-01-04T15:48:07.973Z,98452.53
2023-01-04T15:50:37.421Z,98458.28
2023-01-04T15:53:05.491Z,98458.88
2023-01-04T15:55:36.255Z,98459.53
2023-01-04T15:58:04.698Z,98456.91
2023-01-04T16:00:32.057Z,98465.13
2023-01-04T16:02:58.809Z,98460.66
2023-01-04T16:05:25.550Z,98455.97
2023-01-04T16:07:52.157Z,98454.31
2023-01-04T16:10:19.085Z,98458.03
2023-01-04T16:12:49.876Z,98470.41
2023-01-04T16:15:21.936Z,98463.44
2023-01-04T16:17:48.778Z,98465.09
2023-01-04T16:20:16.864Z,98461.38
2023-01-04T16:22:43.440Z,98463.06
2023-01-04T16:25:12.132Z,98457.47
2023-01-04T16:27:39.519Z,98458.03
2023-01-04T16:30:10.768Z,98459.72
2023-01-04T16:32:40.304Z,98455.63
2023-01-04T16:35:07.152Z,98448.41
2023-01-04T16:37:33.836Z,98447.78
2023-01-04T16:40:08.921Z,98443.88
2023-01-04T16:42:37.826Z,98439.47
2023-01-04T16:45:05.921Z,98436.94
2023-01-04T16:47:43.454Z,98440.31
2023-01-04T16:50:12.326Z,98428.84
2023-01-04T16:52:39.971Z,98444.97
2023-01-04T16:55:07.346Z,98445.66
2023-01-04T16:57:34.044Z,98448.06
2023-01-04T17:00:00.648Z,98450.59
2023-01-04T17:02:27.280Z,98445.91
2023-01-04T17:04:59.550Z,98450.75
2023-01-04T17:07:32.787Z,98441.25
2023-01-04T17:10:00.856Z,98437.69
2023-01-04T17:15:41.781Z,98434.78
2023-01-04T17:18:00.763Z,98430.44
2023-01-04T17:20:27.450Z,98422.41
2023-01-04T17:22:54.043Z,98415.31
2023-01-04T17:25:20.627Z,98408.84
2023-01-04T17:27:47.215Z,98416.41
2023-01-04T17:30:13.960Z,98413.97
2023-01-04T17:32:40.564Z,98405.03
2023-01-04T17:35:07.365Z,98397.94
2023-01-04T17:37:33.944Z,98398.84
2023-01-04T17:40:00.514Z,98392.88
2023-01-04T17:42:27.136Z,98383.16
2023-01-04T17:44:53.828Z,98386.91
2023-01-04T17:47:20.489Z,98393.09
2023-01-04T17:49:47.161Z,98382.25
2023-01-04T17:52:21.025Z,98383.09
2023-01-04T17:54:51.153Z,98378.69
2023-01-04T17:57:17.725Z,98367.50
2023-01-04T17:59:44.325Z,98382.34
2023-01-04T18:02:11.033Z,98373.50
2023-01-04T18:04:37.663Z,98383.94
2023-01-04T18:07:04.260Z,98386.66
2023-01-04T18:09:30.854Z,98386.44
2023-01-04T18:11:57.454Z,98383.94
2023-01-04T18:14:24.396Z,98380.69
2023-01-04T18:16:57.884Z,98384.31
2023-01-04T18:19:27.520Z,98377.44
2023-01-04T18:21:54.630Z,98372.78
2023-01-04T18:24:38.166Z,98360.56
2023-01-04T18:27:24.393Z,98345.91
2023-01-04T18:29:53.032Z,98358.16
2023-01-04T18:32:20.615Z,98353.97
2023-01-04T18:34:47.404Z,98343.50
2023-01-04T18:37:15.769Z,98352.06
2023-01-04T18:39:42.793Z,98352.94
2023-01-04T18:42:09.440Z,98344.97
2023-01-04T18:44:37.742Z,98347.41
2023-01-04T18:47:06.444Z,98347.41
2023-01-04T18:49:33.090Z,98348.53
2023-01-04T18:51:59.709Z,98340.63
2023-01-04T18:54:26.300Z,98336.59
2023-01-04T18:56:58.955Z,98329.31
2023-01-04T18:59:30.827Z,98327.63
2023-01-04T19:02:01.687Z,98324.94
2023-01-04T19:04:34.111Z,98317.41
2023-01-04T19:07:01.260Z,98309.56
2023-01-04T19:09:27.896Z,98308.81
2023-01-04T19:11:54.473Z,98307.31
2023-01-04T19:14:21.228Z,98302.09
2023-01-04T19:16:47.931Z,98290.81
2023-01-04T19:19:14.688Z,98296.22
2023-01-04T19:21:41.399Z,98291.09
2023-01-04T19:24:08.115Z,98297.91
2023-01-04T19:26:34.683Z,98285.78
2023-01-04T19:29:01.380Z,98286.81
2023-01-04T19:31:28.171Z,98288.50
2023-01-04T19:33:54.790Z,98298.00
2023-01-04T19:36:21.487Z,98296.22
2023-01-04T19:38:48.193Z,98294.56
2023-01-04T19:41:20.873Z,98298.19
2023-01-04T19:43:47.648Z,98294.09
2023-01-04T19:46:14.424Z,98294.38
2023-01-04T19:48:41.698Z,98292.44
2023-01-04T19:51:14.459Z,98300.34
2023-01-04T19:53:42.817Z,98294.19
2023-01-04T19:56:10.239Z,98300.25
2023-01-04T19:58:38.267Z,98295.22
2023-01-04T20:01:05.448Z,98286.66
2023-01-04T20:03:32.531Z,98285.19
2023-01-04T20:06:06.543Z,98270.84
2023-01-04T20:08:33.513Z,98266.53
2023-01-04T20:11:01.741Z,98263.91
2023-01-04T20:13:29.900Z,98265.03
2023-01-04T20:15:56.533Z,98269.81
2023-01-04T20:18:26.157Z,98271.75
2023-01-04T20:20:53.467Z,98261.06
2023-01-04T20:23:21.863Z,98250.81
2023-01-04T20:25:50.709Z,98253.53
2023-01-04T20:28:20.082Z,98241.22
2023-01-04T20:30:47.492Z,98253.72
2023-01-04T20:33:14.624Z,98257.16
2023-01-04T20:35:44.392Z,98251.66
2023-01-04T20:38:11.824Z,98246.53
2023-01-04T20:40:39.168Z,98236.56
2023-01-04T20:43:24.308Z,98244.38
2023-01-04T20:45:50.962Z,98243.84
2023-01-04T20:48:17.698Z,98236.19
2023-01-04T20:50:44.874Z,98232.94
2023-01-04T20:53:13.255Z,98239.34
2023-01-04T20:55:41.697Z,98223.16
2023-01-04T20:58:10.001Z,98220.00
2023-01-04T21:00:37.299Z,98230.78
2023-01-04T21:03:04.795Z,98208.25
2023-01-04T21:05:36.675Z,98220.63
2023-01-04T21:08:03.863Z,98219.69
2023-01-04T21:10:30.465Z,98209.91
2023-01-04T21:12:57.043Z,98211.69
2023-01-04T21:15:23.856Z,98213.47
2023-01-04T21:17:50.580Z,98206.66
2023-01-04T21:20:17.267Z,98211.47
2023-01-04T21:22:44.227Z,98195.94
2023-01-04T21:25:10.822Z,98204.41
2023-01-04T21:27:37.411Z,98212.44
2023-01-04T21:30:04.947Z,98211.41
2023-01-04T21:32:31.562Z,98202.09
2023-01-04T21:34:58.152Z,98201.06
2023-01-04T21:37:25.246Z,98197.34
2023-01-04T21:39:51.909Z,98191.38
2023-01-04T21:42:18.468Z,98178.06
2023-01-04T21:44:45.094Z,98168.19
2023-01-04T21:47:11.667Z,98168.75
2023-01-04T21:49:43.607Z,98159.06
2023-01-04T21:52:11.021Z,98169.09
2023-01-04T21:54:38.265Z,98161.66
2023-01-04T21:57:07.884Z,98160.56
2023-01-04T21:59:36.311Z,98155.91
2023-01-04T22:02:03.363Z,98154.41
2023-01-04T22:04:30.864Z,98158.69
2023-01-04T22:06:58.212Z,98153.03
2023-01-04T22:09:25.408Z,98153.19
2023-01-04T22:11:52.084Z,98152.09
2023-01-04T22:14:18.787Z,98150.31
2023-01-04T22:16:45.655Z,98142.41
2023-01-04T22:19:13.703Z,98135.44
2023-01-04T22:21:41.643Z,98143.25
2023-01-04T22:24:11.952Z,98140.56
2023-01-04T22:26:39.490Z,98134.88
2023-01-04T22:29:06.108Z,98131.81
2023-01-04T22:31:33.145Z,98132.81
2023-01-04T22:34:00.020Z,98128.56
2023-01-04T22:36:27.224Z,98125.94
2023-01-04T22:38:55.865Z,98119.59
2023-01-04T22:41:25.494Z,98118.88
2023-01-04T22:44:00.865Z,98121.38
2023-01-04T22:46:28.887Z,98128.72
2023-01-04T22:48:56.149Z,98113.41
2023-01-04T22:51:24.277Z,98114.38
2023-01-04T22:53:55.298Z,98107.03
2023-01-04T22:56:23.184Z,98099.31
2023-01-04T22:58:54.205Z,98090.59
2023-01-04T23:01:24.197Z,98089.91
2023-01-04T23:03:51.991Z,98086.69
2023-01-04T23:06:18.845Z,98082.50
2023-01-04T23:08:45.411Z,98088.88
2023-01-04T23:11:15.342Z,98092.78
2023-01-04T23:13:42.770Z,98082.78
2023-01-04T23:16:12.577Z,98081.75
2023-01-04T23:18:39.366Z,98074.19
2023-01-04T23:21:06.684Z,98068.44
2023-01-04T23:23:33.733Z,98063.13
2023-01-04T23:26:13.773Z,98051.88
2023-01-04T23:28:40.879Z,98039.88
2023-01-04T23:31:10.747Z,98039.78
2023-01-04T23:33:37.982Z,98032.72
2023-01-04T23:36:07.418Z,98024.44
2023-01-04T23:38:34.358Z,98023.50
2023-01-04T23:41:00.976Z,98020.06
2023-01-04T23:43:27.822Z,98017.28
2023-01-04T23:45:54.620Z,98012.72
2023-01-04T23:48:21.198Z,98011.59
2023-01-04T23:50:57.751Z,98006.38
2023-01-04T23:53:24.751Z,98003.91
2023-01-04T23:55:56.807Z,97989.47
2023-01-04T23:58:25.266Z,97992.66
